createdAt,value
2022-11-01T00:01:00.417Z,90.50
2022-11-01T00:03:30.598Z,88.10
2022-11-01T00:06:01.223Z,84.90
2022-11-01T00:08:32.136Z,84.80
2022-11-01T00:11:07.777Z,85.10
2022-11-01T00:13:38.316Z,83.10
2022-11-01T00:16:10.176Z,83.00
2022-11-01T00:18:40.530Z,80.00
2022-11-01T00:21:11.646Z,81.60
2022-11-01T00:23:42.038Z,81.60
2022-11-01T00:26:18.209Z,78.10
2022-11-01T00:28:49.324Z,78.10
2022-11-01T00:31:21.897Z,77.90
2022-11-01T00:33:52.725Z,79.70
2022-11-01T00:36:23.439Z,77.20
2022-11-01T00:38:57.203Z,75.90
2022-11-01T00:41:27.413Z,76.70
2022-11-01T00:43:57.725Z,76.20
2022-11-01T00:46:28.769Z,77.70
2022-11-01T00:48:59.491Z,78.40
2022-11-01T00:51:31.224Z,78.50
2022-11-01T00:54:01.555Z,76.30
2022-11-01T00:56:31.944Z,76.90
2022-11-01T00:59:02.677Z,73.00
2022-11-01T01:01:34.464Z,75.80
2022-11-01T01:04:05.241Z,71.60
2022-11-01T01:06:35.503Z,71.80
2022-11-01T01:09:09.040Z,74.80
2022-11-01T01:11:40.604Z,75.40
2022-11-01T01:14:12.031Z,74.40
2022-11-01T01:19:13.094Z,79.30
2022-11-01T01:21:43.361Z,78.10
2022-11-01T01:24:14.229Z,76.60
2022-11-01T01:26:44.873Z,73.80
2022-11-01T01:29:15.352Z,76.10
2022-11-01T01:31:45.750Z,75.60
2022-11-01T01:34:16.040Z,73.90
2022-11-01T01:36:46.935Z,75.80
2022-11-01T01:39:17.868Z,78.60
2022-11-01T01:41:58.515Z,78.60
2022-11-01T01:44:47.488Z,77.70
2022-11-01T01:47:23.031Z,75.20
2022-11-01T01:50:15.674Z,76.40
2022-11-01T01:52:59.476Z,78.00
2022-11-01T01:55:45.026Z,75.20
2022-11-01T01:58:16.969Z,74.00
2022-11-01T02:00:47.965Z,74.00
2022-11-01T02:03:19.408Z,77.10
2022-11-01T02:06:05.506Z,77.70
2022-11-01T02:08:36.421Z,81.90
2022-11-01T02:11:08.763Z,83.30
2022-11-01T02:13:40.234Z,81.80
2022-11-01T02:16:40.442Z,81.10
2022-11-01T02:19:30.394Z,79.10
2022-11-01T02:22:17.706Z,78.10
2022-11-01T02:24:47.851Z,78.70
2022-11-01T02:27:45.013Z,79.90
2022-11-01T02:30:26.150Z,80.10
2022-11-01T02:33:10.770Z,78.50
2022-11-01T02:36:05.216Z,78.70
2022-11-01T02:39:01.685Z,79.80
2022-11-01T02:41:50.485Z,79.70
2022-11-01T02:44:26.822Z,81.80
2022-11-01T02:47:04.834Z,82.00
2022-11-01T02:49:44.000Z,80.50
2022-11-01T02:52:22.424Z,81.60
2022-11-01T02:54:59.350Z,82.40
2022-11-01T02:57:44.815Z,83.90
2022-11-01T03:00:28.518Z,82.50
2022-11-01T03:03:05.623Z,85.20
2022-11-01T03:05:51.378Z,85.80
2022-11-01T03:08:33.927Z,89.20
2022-11-01T03:11:07.579Z,89.30
2022-11-01T03:13:37.910Z,86.70
2022-11-01T03:16:22.407Z,87.40
2022-11-01T03:19:21.761Z,85.10
2022-11-01T03:22:01.338Z,87.40
2022-11-01T03:24:36.258Z,85.70
2022-11-01T03:27:17.800Z,88.80
2022-11-01T03:29:58.548Z,90.90
2022-11-01T03:32:34.272Z,87.60
2022-11-01T03:35:06.458Z,85.50
2022-11-01T03:37:39.196Z,84.00
2022-11-01T03:40:13.707Z,84.00
2022-11-01T03:42:47.359Z,81.90
2022-11-01T03:47:55.830Z,83.20
2022-11-01T03:50:28.740Z,78.90
2022-11-01T03:52:59.133Z,80.50
2022-11-01T03:55:30.897Z,82.60
2022-11-01T03:58:02.420Z,82.60
2022-11-01T04:00:35.076Z,80.40
2022-11-01T04:03:05.786Z,80.50
2022-11-01T04:05:37.868Z,80.10
2022-11-01T04:08:10.467Z,77.70
2022-11-01T04:10:41.082Z,79.20
2022-11-01T04:13:13.216Z,77.40
2022-11-01T04:16:01.380Z,78.80
2022-11-01T04:18:49.817Z,77.60
2022-11-01T04:21:25.059Z,78.40
2022-11-01T04:23:55.859Z,79.80
2022-11-01T04:26:27.039Z,83.20
2022-11-01T04:29:00.564Z,84.70
2022-11-01T04:31:36.793Z,87.30
2022-11-01T04:34:08.226Z,85.80
2022-11-01T04:36:40.873Z,87.30
2022-11-01T04:39:12.173Z,86.60
2022-11-01T04:41:42.421Z,86.90
2022-11-01T04:44:12.896Z,88.00
2022-11-01T04:46:43.197Z,87.90
2022-11-01T04:49:14.729Z,87.60
2022-11-01T04:51:46.561Z,89.30
2022-11-01T04:54:17.231Z,89.20
2022-11-01T04:56:47.604Z,89.90
2022-11-01T04:59:17.908Z,89.90
2022-11-01T05:01:48.432Z,88.50
2022-11-01T05:04:18.798Z,89.80
2022-11-01T05:06:49.092Z,89.70
2022-11-01T05:09:20.611Z,86.90
2022-11-01T05:11:50.964Z,87.90
2022-11-01T05:14:22.797Z,85.30
2022-11-01T05:16:53.173Z,85.90
2022-11-01T05:19:24.693Z,88.70
2022-11-01T05:21:55.636Z,87.60
2022-11-01T05:24:26.302Z,89.70
2022-11-01T05:26:56.962Z,90.00
2022-11-01T05:29:32.918Z,90.60
2022-11-01T05:32:03.762Z,90.80
2022-11-01T05:34:33.984Z,90.70
2022-11-01T05:37:04.223Z,91.60
2022-11-01T05:39:34.803Z,91.40
2022-11-01T05:42:05.122Z,92.10
2022-11-01T05:44:36.761Z,92.40
2022-11-01T05:47:08.041Z,92.60
2022-11-01T05:49:38.294Z,93.20
2022-11-01T05:52:09.010Z,93.10
2022-11-01T05:54:39.195Z,92.80
2022-11-01T05:57:09.485Z,92.80
2022-11-01T05:59:39.700Z,93.60
2022-11-01T06:02:09.994Z,93.50
2022-11-01T06:04:40.708Z,94.10
2022-11-01T06:07:11.392Z,94.60
2022-11-01T06:09:41.630Z,94.70
2022-11-01T06:12:11.859Z,95.50
2022-11-01T06:14:42.052Z,95.40
2022-11-01T06:17:16.182Z,94.60
2022-11-01T06:19:49.036Z,95.00
2022-11-01T06:22:21.832Z,95.40
2022-11-01T06:24:52.162Z,95.30
2022-11-01T06:27:22.760Z,95.00
2022-11-01T06:29:53.027Z,95.20
2022-11-01T06:32:23.356Z,95.40
2022-11-01T06:34:54.761Z,95.20
2022-11-01T06:37:25.717Z,95.40
2022-11-01T06:39:56.588Z,96.00
2022-11-01T06:42:27.489Z,96.00
2022-11-01T06:44:57.822Z,95.40
2022-11-01T06:47:28.540Z,95.50
2022-11-01T06:49:58.782Z,95.80
2022-11-01T06:52:29.434Z,95.70
2022-11-01T06:54:59.662Z,95.70
2022-11-01T06:57:29.969Z,95.40
2022-11-01T07:00:00.217Z,95.40
2022-11-01T07:02:30.629Z,95.50
2022-11-01T07:05:00.896Z,95.70
2022-11-01T07:07:31.195Z,95.20
2022-11-01T07:10:01.381Z,94.80
2022-11-01T07:12:33.266Z,95.40
2022-11-01T07:15:03.843Z,95.90
2022-11-01T07:17:34.104Z,96.00
2022-11-01T07:20:04.391Z,95.70
2022-11-01T07:22:36.288Z,95.60
2022-11-01T07:25:07.369Z,95.10
2022-11-01T07:27:38.658Z,95.70
2022-11-01T07:30:09.465Z,95.30
2022-11-01T07:32:40.186Z,95.60
2022-11-01T07:35:11.272Z,95.30
2022-11-01T07:37:41.534Z,96.00
2022-11-01T07:40:12.673Z,96.20
2022-11-01T07:42:47.127Z,95.60
2022-11-01T07:45:17.379Z,95.70
2022-11-01T07:47:47.538Z,96.10
2022-11-01T07:50:18.137Z,96.30
2022-11-01T07:52:48.623Z,96.00
2022-11-01T07:55:19.033Z,96.20
2022-11-01T07:57:49.916Z,95.80
2022-11-01T08:00:20.719Z,95.90
2022-11-01T08:02:52.404Z,96.30
2022-11-01T08:05:24.267Z,96.20
2022-11-01T08:07:55.843Z,95.60
2022-11-01T08:10:26.596Z,96.00
2022-11-01T08:13:03.867Z,95.80
2022-11-01T08:15:34.837Z,95.80
2022-11-01T08:18:05.465Z,95.60
2022-11-01T08:20:36.149Z,95.10
2022-11-01T08:23:07.221Z,95.30
2022-11-01T08:25:38.853Z,95.40
2022-11-01T08:28:16.732Z,95.40
2022-11-01T08:30:49.248Z,96.00
2022-11-01T08:33:20.908Z,96.10
2022-11-01T08:35:52.417Z,95.80
2022-11-01T08:38:31.358Z,95.70
2022-11-01T08:41:02.559Z,95.80
2022-11-01T08:43:33.619Z,96.10
2022-11-01T08:46:08.603Z,96.10
2022-11-01T08:48:39.245Z,96.10
2022-11-01T08:51:10.026Z,96.10
2022-11-01T08:53:40.906Z,96.40
2022-11-01T08:56:11.910Z,96.00
2022-11-01T08:58:42.188Z,95.90
2022-11-01T09:01:15.578Z,95.80
2022-11-01T09:03:46.511Z,95.60
2022-11-01T09:06:17.638Z,95.90
2022-11-01T09:08:47.937Z,95.90
2022-11-01T09:11:18.650Z,95.90
2022-11-01T09:13:51.123Z,96.30
2022-11-01T09:16:22.287Z,96.10
2022-11-01T09:18:54.052Z,96.20
2022-11-01T09:21:29.124Z,96.60
2022-11-01T09:24:02.333Z,96.30
2022-11-01T09:26:32.766Z,96.10
2022-11-01T09:29:03.401Z,96.10
2022-11-01T09:31:35.151Z,96.20
2022-11-01T09:34:05.439Z,95.90
2022-11-01T09:36:35.935Z,96.20
2022-11-01T09:39:06.640Z,96.60
2022-11-01T09:41:49.410Z,96.50
2022-11-01T09:44:39.774Z,96.60
2022-11-01T09:47:19.446Z,96.10
2022-11-01T09:49:53.943Z,96.00
2022-11-01T09:52:28.419Z,95.50
2022-11-01T09:55:00.345Z,95.20
2022-11-01T09:57:40.891Z,96.10
2022-11-01T10:00:21.977Z,95.80
2022-11-01T10:03:36.012Z,95.90
2022-11-01T10:06:38.150Z,95.70
2022-11-01T10:09:35.459Z,95.70
2022-11-01T10:12:46.462Z,96.00
2022-11-01T10:15:44.192Z,95.70
2022-11-01T10:18:35.108Z,95.70
2022-11-01T10:21:17.471Z,96.10
2022-11-01T10:23:53.561Z,95.70
2022-11-01T10:26:34.332Z,95.60
2022-11-01T10:29:24.441Z,95.20
2022-11-01T10:31:57.032Z,95.70
2022-11-01T10:34:37.624Z,95.80
2022-11-01T10:37:32.421Z,95.70
2022-11-01T10:40:14.971Z,95.80
2022-11-01T10:42:45.511Z,96.10
2022-11-01T10:45:21.731Z,96.50
2022-11-01T10:47:58.491Z,96.30
2022-11-01T10:50:30.054Z,96.30
2022-11-01T10:53:09.849Z,96.60
2022-11-01T10:56:11.088Z,96.80
2022-11-01T10:58:48.834Z,96.80
2022-11-01T11:01:27.265Z,96.00
2022-11-01T11:04:02.914Z,95.80
2022-11-01T11:06:35.339Z,95.70
2022-11-01T11:09:08.057Z,95.80
2022-11-01T11:11:46.360Z,95.90
2022-11-01T11:14:18.244Z,96.70
2022-11-01T11:16:53.986Z,96.10
2022-11-01T11:19:36.055Z,96.20
2022-11-01T11:22:09.754Z,96.40
2022-11-01T11:24:45.477Z,96.50
2022-11-01T11:27:26.072Z,96.30
2022-11-01T11:30:04.655Z,96.60
2022-11-01T11:32:43.755Z,96.60
2022-11-01T11:35:17.989Z,96.50
2022-11-01T11:38:05.441Z,95.50
2022-11-01T11:40:45.057Z,95.80
2022-11-01T11:43:33.406Z,95.70
2022-11-01T11:46:12.100Z,95.30
2022-11-01T11:49:09.163Z,95.90
2022-11-01T11:51:40.969Z,95.60
2022-11-01T11:54:40.343Z,95.40
2022-11-01T11:57:27.923Z,95.30
2022-11-01T12:00:07.515Z,96.10
2022-11-01T12:02:43.809Z,95.80
2022-11-01T12:05:28.669Z,95.50
2022-11-01T12:08:00.518Z,96.00
2022-11-01T12:10:48.343Z,95.90
2022-11-01T12:13:30.937Z,96.10
2022-11-01T12:16:20.111Z,96.20
2022-11-01T12:18:55.705Z,96.10
2022-11-01T12:21:42.199Z,96.20
2022-11-01T12:24:33.880Z,95.70
2022-11-01T12:27:09.317Z,95.40
2022-11-01T12:29:57.650Z,95.80
2022-11-01T12:32:50.019Z,96.00
2022-11-01T12:35:38.264Z,95.90
2022-11-01T12:38:39.107Z,95.20
2022-11-01T12:41:21.724Z,95.30
2022-11-01T12:44:19.192Z,95.40
2022-11-01T12:47:12.529Z,95.40
2022-11-01T12:50:03.896Z,95.00
2022-11-01T12:53:07.045Z,95.20
2022-11-01T12:55:40.866Z,95.40
2022-11-01T12:58:25.149Z,95.40
2022-11-01T13:01:10.558Z,95.60
2022-11-01T13:04:02.425Z,94.90
2022-11-01T13:06:50.603Z,94.80
2022-11-01T13:09:46.505Z,95.10
2022-11-01T13:12:42.727Z,95.20
2022-11-01T13:15:42.670Z,95.50
2022-11-01T13:18:35.187Z,95.40
2022-11-01T13:21:21.200Z,95.30
2022-11-01T13:23:59.136Z,95.60
2022-11-01T13:26:52.009Z,94.70
2022-11-01T13:29:48.965Z,95.30
2022-11-01T13:32:57.002Z,95.00
2022-11-01T13:35:53.545Z,95.40
2022-11-01T13:38:35.572Z,94.60
2022-11-01T13:41:41.881Z,94.60
2022-11-01T13:44:23.846Z,95.00
2022-11-01T13:47:25.454Z,95.00
2022-11-01T13:50:08.961Z,95.40
2022-11-01T13:52:47.674Z,95.50
2022-11-01T13:55:52.960Z,95.70
2022-11-01T13:58:25.411Z,95.60
2022-11-01T14:00:58.292Z,95.80
2022-11-01T14:03:31.305Z,96.00
2022-11-01T14:06:14.183Z,95.80
2022-11-01T14:08:50.524Z,96.00
2022-11-01T14:11:52.040Z,95.30
2022-11-01T14:14:34.832Z,94.90
2022-11-01T14:17:29.333Z,95.00
2022-11-01T14:20:03.035Z,95.20
2022-11-01T14:22:34.921Z,95.30
2022-11-01T14:25:26.082Z,95.30
2022-11-01T14:28:19.777Z,95.20
2022-11-01T14:30:55.485Z,95.00
2022-11-01T14:33:26.398Z,95.10
2022-11-01T14:36:02.116Z,95.10
2022-11-01T14:38:51.490Z,95.20
2022-11-01T14:41:25.469Z,95.20
2022-11-01T14:44:03.320Z,95.30
2022-11-01T14:46:41.950Z,95.40
2022-11-01T14:49:45.553Z,95.80
2022-11-01T14:52:55.887Z,95.50
2022-11-01T14:55:37.837Z,95.60
2022-11-01T14:58:28.492Z,95.70
2022-11-01T15:01:06.605Z,96.00
2022-11-01T15:03:38.365Z,95.30
2022-11-01T15:06:38.730Z,95.00
2022-11-01T15:09:10.324Z,93.90
2022-11-01T15:11:41.853Z,94.30
2022-11-01T15:14:12.932Z,94.50
2022-11-01T15:16:45.746Z,93.70
2022-11-01T15:19:29.534Z,94.10
2022-11-01T15:22:04.821Z,94.40
2022-11-01T15:24:36.948Z,94.40
2022-11-01T15:27:10.288Z,94.80
2022-11-01T15:29:41.023Z,94.60
2022-11-01T15:32:29.382Z,94.30
2022-11-01T15:35:02.549Z,94.60
2022-11-01T15:37:37.485Z,94.60
2022-11-01T15:40:31.334Z,94.50
2022-11-01T15:43:05.034Z,94.20
2022-11-01T15:45:42.455Z,94.30
2022-11-01T15:48:17.511Z,94.60
2022-11-01T15:51:02.364Z,94.30
2022-11-01T15:53:35.915Z,93.40
2022-11-01T15:56:15.005Z,94.60
2022-11-01T15:58:56.200Z,93.50
2022-11-01T16:01:28.032Z,93.80
2022-11-01T16:04:09.582Z,93.90
2022-11-01T16:06:54.215Z,93.80
2022-11-01T16:09:38.151Z,93.60
2022-11-01T16:12:17.647Z,93.10
2022-11-01T16:14:56.673Z,93.80
2022-11-01T16:17:41.376Z,93.70
2022-11-01T16:20:33.346Z,92.50
2022-11-01T16:23:08.415Z,93.10
2022-11-01T16:25:41.763Z,93.00
2022-11-01T16:28:13.308Z,92.50
2022-11-01T16:30:58.065Z,93.10
2022-11-01T16:33:37.941Z,93.50
2022-11-01T16:36:28.832Z,93.60
2022-11-01T16:38:59.804Z,93.70
2022-11-01T16:41:41.009Z,93.70
2022-11-01T16:44:19.813Z,93.60
2022-11-01T16:46:52.449Z,93.90
2022-11-01T16:49:28.859Z,93.50
2022-11-01T16:51:59.598Z,93.00
2022-11-01T16:54:30.778Z,92.80
2022-11-01T16:57:02.126Z,93.00
2022-11-01T16:59:40.208Z,92.50
2022-11-01T17:02:31.809Z,93.00
2022-11-01T17:05:18.694Z,93.20
2022-11-01T17:07:49.320Z,92.90
2022-11-01T17:10:24.189Z,93.20
2022-11-01T17:12:59.464Z,93.10
2022-11-01T17:15:29.929Z,92.90
2022-11-01T17:18:05.079Z,93.10
2022-11-01T17:20:35.823Z,93.40
2022-11-01T17:23:07.951Z,93.00
2022-11-01T17:25:38.130Z,93.20
2022-11-01T17:28:08.484Z,93.30
2022-11-01T17:30:39.337Z,93.10
2022-11-01T17:33:10.194Z,93.30
2022-11-01T17:35:42.128Z,93.30
2022-11-01T17:38:30.560Z,93.20
2022-11-01T17:41:02.578Z,93.30
2022-11-01T17:43:33.867Z,93.20
2022-11-01T17:46:05.409Z,92.70
2022-11-01T17:48:36.703Z,92.60
2022-11-01T17:51:07.197Z,92.90
2022-11-01T17:53:40.928Z,92.80
2022-11-01T17:56:11.478Z,92.90
2022-11-01T17:58:41.716Z,92.90
2022-11-01T18:01:12.982Z,92.80
2022-11-01T18:03:43.544Z,91.90
2022-11-01T18:06:14.085Z,92.20
2022-11-01T18:08:53.421Z,92.60
2022-11-01T18:11:42.876Z,92.60
2022-11-01T18:14:24.502Z,91.80
2022-11-01T18:17:35.504Z,92.40
2022-11-01T18:20:12.740Z,91.90
2022-11-01T18:23:24.645Z,92.00
2022-11-01T18:25:55.958Z,91.60
2022-11-01T18:28:29.828Z,92.00
2022-11-01T18:31:26.591Z,91.50
2022-11-01T18:34:16.258Z,91.60
2022-11-01T18:37:17.088Z,91.90
2022-11-01T18:40:01.895Z,91.50
2022-11-01T18:42:33.572Z,91.20
2022-11-01T18:45:20.078Z,91.50
2022-11-01T18:48:03.143Z,92.20
2022-11-01T18:50:33.738Z,92.50
2022-11-01T18:53:08.895Z,92.10
2022-11-01T18:55:42.220Z,92.50
2022-11-01T18:58:35.634Z,92.50
2022-11-01T19:01:22.853Z,91.80
2022-11-01T19:04:28.362Z,91.90
2022-11-01T19:07:35.149Z,92.10
2022-11-01T19:10:24.565Z,92.50
2022-11-01T19:12:58.853Z,92.10
2022-11-01T19:15:32.784Z,92.00
2022-11-01T19:18:06.655Z,92.10
2022-11-01T19:20:51.542Z,92.10
2022-11-01T19:23:41.144Z,92.70
2022-11-01T19:26:35.869Z,90.00
2022-11-01T19:29:16.083Z,91.70
2022-11-01T19:31:47.419Z,90.50
2022-11-01T19:34:30.129Z,90.50
2022-11-01T19:37:03.948Z,91.10
2022-11-01T19:39:39.368Z,90.80
2022-11-01T19:42:33.887Z,91.40
2022-11-01T19:45:18.450Z,91.20
2022-11-01T19:47:52.255Z,91.60
2022-11-01T19:50:29.798Z,91.40
2022-11-01T19:53:02.756Z,91.30
2022-11-01T19:55:38.906Z,91.00
2022-11-01T19:58:31.517Z,91.00
2022-11-01T20:01:12.675Z,90.00
2022-11-01T20:03:50.046Z,90.80
2022-11-01T20:06:20.221Z,90.50
2022-11-01T20:08:56.236Z,92.10
2022-11-01T20:11:26.694Z,91.60
2022-11-01T20:13:57.014Z,91.20
2022-11-01T20:16:27.248Z,91.50
2022-11-01T20:18:57.455Z,91.60
2022-11-01T20:21:27.819Z,91.00
2022-11-01T20:23:58.560Z,89.70
2022-11-01T20:26:29.187Z,91.40
2022-11-01T20:29:00.052Z,91.20
2022-11-01T20:31:32.008Z,91.20
2022-11-01T20:34:02.951Z,91.40
2022-11-01T20:36:34.399Z,91.60
2022-11-01T20:39:05.164Z,92.00
2022-11-01T20:41:35.530Z,91.60
2022-11-01T20:44:05.999Z,91.30
2022-11-01T20:46:36.454Z,90.60
2022-11-01T20:49:07.037Z,90.40
2022-11-01T20:51:37.519Z,91.50
2022-11-01T20:54:07.883Z,90.70
2022-11-01T20:56:38.548Z,90.20
2022-11-01T20:59:11.040Z,91.30
2022-11-01T21:01:41.514Z,91.60
2022-11-01T21:04:15.133Z,91.30
2022-11-01T21:06:45.870Z,91.00
2022-11-01T21:09:46.657Z,91.00
2022-11-01T21:12:39.012Z,90.90
2022-11-01T21:15:42.228Z,90.90
2022-11-01T21:18:15.966Z,91.20
2022-11-01T21:20:49.322Z,88.60
2022-11-01T21:23:23.021Z,86.20
2022-11-01T21:26:01.638Z,85.80
2022-11-01T21:28:36.459Z,86.60
2022-11-01T21:31:13.539Z,83.90
2022-11-01T21:33:59.172Z,83.60
2022-11-01T21:36:38.449Z,78.60
2022-11-01T21:39:19.590Z,81.20
2022-11-01T21:41:54.067Z,74.60
2022-11-01T21:44:31.886Z,77.50
2022-11-01T21:47:29.859Z,77.50
2022-11-01T21:50:00.200Z,78.00
2022-11-01T21:52:30.859Z,77.50
2022-11-01T21:55:01.538Z,74.10
2022-11-01T21:57:31.706Z,73.60
2022-11-01T22:00:01.889Z,75.70
2022-11-01T22:02:32.560Z,73.10
2022-11-01T22:05:04.335Z,71.40
2022-11-01T22:07:34.538Z,75.90
2022-11-01T22:10:04.907Z,77.30
2022-11-01T22:12:35.644Z,77.80
2022-11-01T22:15:06.546Z,78.80
2022-11-01T22:17:36.822Z,76.10
2022-11-01T22:20:07.910Z,77.70
2022-11-01T22:22:38.117Z,78.20
2022-11-01T22:25:08.722Z,79.10
2022-11-01T22:27:39.027Z,76.40
2022-11-01T22:30:10.761Z,77.00
2022-11-01T22:32:41.307Z,78.70
2022-11-01T22:35:12.792Z,76.70
2022-11-01T22:37:44.175Z,78.10
2022-11-01T22:40:16.570Z,78.60
2022-11-01T22:42:50.749Z,78.90
2022-11-01T22:45:21.460Z,77.60
2022-11-01T22:47:51.860Z,78.30
2022-11-01T22:50:29.471Z,76.90
2022-11-01T22:52:59.877Z,77.40
2022-11-01T22:55:32.169Z,76.50
2022-11-01T22:58:19.400Z,75.50
2022-11-01T23:00:50.668Z,75.90
2022-11-01T23:03:38.807Z,73.10
2022-11-01T23:06:23.905Z,75.70
2022-11-01T23:08:58.715Z,74.80
2022-11-01T23:11:51.062Z,74.00
2022-11-01T23:14:38.947Z,74.20
2022-11-01T23:17:22.857Z,73.20
2022-11-01T23:20:01.257Z,73.30
2022-11-01T23:22:39.820Z,73.30
2022-11-01T23:25:12.085Z,73.90
2022-11-01T23:27:47.087Z,71.80
2022-11-01T23:30:17.855Z,74.70
2022-11-01T23:32:48.156Z,74.80
2022-11-01T23:35:23.316Z,73.80
2022-11-01T23:37:58.034Z,69.00
2022-11-01T23:40:35.935Z,70.90
2022-11-01T23:43:17.822Z,74.10
2022-11-01T23:45:48.580Z,73.40
2022-11-01T23:48:19.305Z,70.40
2022-11-01T23:50:51.068Z,67.80
2022-11-01T23:53:25.014Z,71.60
2022-11-01T23:55:56.632Z,69.30
2022-11-01T23:58:34.786Z,72.80
